sensor_id;sensor_type;location;lat;lon;timestamp;temperature;humidity
30150;DHT22;16962;48.646;9.026;2023-08-21T00:02:23;22.40;99.90
30150;DHT22;16962;48.646;9.026;2023-08-21T00:05:12;22.40;99.90
30150;DHT22;16962;48.646;9.026;2023-08-21T00:07:59;22.50;99.90
30150;DHT22;16962;48.646;9.026;2023-08-21T00:10:47;22.40;99.90
30150;DHT22;16962;48.646;9.026;2023-08-21T00:13:34;22.50;99.90
30150;DHT22;16962;48.646;9.026;2023-08-21T00:16:22;22.50;99.90
30150;DHT22;16962;48.646;9.026;2023-08-21T00:19:09;22.50;99.90
30150;DHT22;16962;48.646;9.026;2023-08-21T00:21:56;22.50;99.90
30150;DHT22;16962;48.646;9.026;2023-08-21T00:24:47;22.60;99.90
30150;DHT22;16962;48.646;9.026;2023-08-21T00:27:39;22.60;99.90
30150;DHT22;16962;48.646;9.026;2023-08-21T00:30:27;22.70;99.90
30150;DHT22;16962;48.646;9.026;2023-08-21T00:33:15;22.80;99.90
30150;DHT22;16962;48.646;9.026;2023-08-21T00:36:03;22.80;99.90
30150;DHT22;16962;48.646;9.026;2023-08-21T00:38:52;22.70;99.90
30150;DHT22;16962;48.646;9.026;2023-08-21T00:41:39;22.60;1.00
30150;DHT22;16962;48.646;9.026;2023-08-21T00:44:27;22.60;1.00
30150;DHT22;16962;48.646;9.026;2023-08-21T00:47:16;22.50;1.00
30150;DHT22;16962;48.646;9.026;2023-08-21T00:50:07;22.40;78.90
30150;DHT22;16962;48.646;9.026;2023-08-21T00:52:55;22.40;99.90
30150;DHT22;16962;48.646;9.026;2023-08-21T00:55:42;22.40;99.90
30150;DHT22;16962;48.646;9.026;2023-08-21T00:58:30;22.40;99.90
30150;DHT22;16962;48.646;9.026;2023-08-21T01:01:18;22.30;99.90
30150;DHT22;16962;48.646;9.026;2023-08-21T01:04:07;22.20;99.90
30150;DHT22;16962;48.646;9.026;2023-08-21T01:06:57;22.20;99.90
30150;DHT22;16962;48.646;9.026;2023-08-21T01:10:05;22.10;1.00
30150;DHT22;16962;48.646;9.026;2023-08-21T01:13:09;22.00;99.90
30150;DHT22;16962;48.646;9.026;2023-08-21T01:15:59;21.90;99.90
30150;DHT22;16962;48.646;9.026;2023-08-21T01:18:47;21.80;1.00
30150;DHT22;16962;48.646;9.026;2023-08-21T01:21:36;21.80;99.90
30150;DHT22;16962;48.646;9.026;2023-08-21T01:24:23;21.70;99.90
30150;DHT22;16962;48.646;9.026;2023-08-21T01:27:13;21.60;1.00
30150;DHT22;16962;48.646;9.026;2023-08-21T01:30:04;21.50;54.20
30150;DHT22;16962;48.646;9.026;2023-08-21T01:33:09;21.40;1.00
30150;DHT22;16962;48.646;9.026;2023-08-21T01:35:59;21.40;99.90
30150;DHT22;16962;48.646;9.026;2023-08-21T01:38:51;21.40;99.90
30150;DHT22;16962;48.646;9.026;2023-08-21T01:41:38;21.30;99.90
30150;DHT22;16962;48.646;9.026;2023-08-21T01:44:25;21.30;99.90
30150;DHT22;16962;48.646;9.026;2023-08-21T01:47:13;21.40;1.00
30150;DHT22;16962;48.646;9.026;2023-08-21T01:50:01;21.30;21.90
30150;DHT22;16962;48.646;9.026;2023-08-21T01:52:50;21.40;99.90
30150;DHT22;16962;48.646;9.026;2023-08-21T01:55:37;21.30;1.00
30150;DHT22;16962;48.646;9.026;2023-08-21T01:58:24;21.30;48.00
30150;DHT22;16962;48.646;9.026;2023-08-21T02:01:11;21.20;36.70
30150;DHT22;16962;48.646;9.026;2023-08-21T02:04:00;21.10;99.90
30150;DHT22;16962;48.646;9.026;2023-08-21T02:06:47;21.10;1.00
30150;DHT22;16962;48.646;9.026;2023-08-21T02:09:35;21.00;1.00
30150;DHT22;16962;48.646;9.026;2023-08-21T02:12:24;21.00;99.90
30150;DHT22;16962;48.646;9.026;2023-08-21T02:15:14;21.00;99.90
30150;DHT22;16962;48.646;9.026;2023-08-21T02:18:01;21.00;1.00
30150;DHT22;16962;48.646;9.026;2023-08-21T02:20:51;20.90;1.00
30150;DHT22;16962;48.646;9.026;2023-08-21T02:23:41;20.90;1.00
30150;DHT22;16962;48.646;9.026;2023-08-21T02:26:29;20.90;1.00
30150;DHT22;16962;48.646;9.026;2023-08-21T02:29:17;20.90;1.00
30150;DHT22;16962;48.646;9.026;2023-08-21T02:32:04;20.80;1.00
30150;DHT22;16962;48.646;9.026;2023-08-21T02:34:54;20.90;1.00
30150;DHT22;16962;48.646;9.026;2023-08-21T02:37:43;20.80;1.00
30150;DHT22;16962;48.646;9.026;2023-08-21T02:40:31;20.70;99.90
30150;DHT22;16962;48.646;9.026;2023-08-21T02:43:18;20.60;99.90
30150;DHT22;16962;48.646;9.026;2023-08-21T02:46:07;20.50;99.90
30150;DHT22;16962;48.646;9.026;2023-08-21T02:48:54;20.40;99.90
30150;DHT22;16962;48.646;9.026;2023-08-21T02:51:41;20.40;99.90
30150;DHT22;16962;48.646;9.026;2023-08-21T02:54:29;20.30;99.90
30150;DHT22;16962;48.646;9.026;2023-08-21T02:57:16;20.30;99.90
30150;DHT22;16962;48.646;9.026;2023-08-21T03:00:04;20.20;99.90
30150;DHT22;16962;48.646;9.026;2023-08-21T03:02:52;20.10;99.90
30150;DHT22;16962;48.646;9.026;2023-08-21T03:05:39;20.10;99.90
30150;DHT22;16962;48.646;9.026;2023-08-21T03:08:30;20.20;99.90
30150;DHT22;16962;48.646;9.026;2023-08-21T03:11:17;20.30;99.90
30150;DHT22;16962;48.646;9.026;2023-08-21T03:14:05;20.30;99.90
30150;DHT22;16962;48.646;9.026;2023-08-21T03:16:52;20.30;99.90
30150;DHT22;16962;48.646;9.026;2023-08-21T03:19:39;20.40;99.90
30150;DHT22;16962;48.646;9.026;2023-08-21T03:22:29;20.40;99.90
30150;DHT22;16962;48.646;9.026;2023-08-21T03:25:16;20.30;99.90
30150;DHT22;16962;48.646;9.026;2023-08-21T03:28:03;20.30;99.90
30150;DHT22;16962;48.646;9.026;2023-08-21T03:30:52;20.20;99.90
30150;DHT22;16962;48.646;9.026;2023-08-21T03:33:40;20.30;99.90
30150;DHT22;16962;48.646;9.026;2023-08-21T03:36:27;20.20;99.90
30150;DHT22;16962;48.646;9.026;2023-08-21T03:39:19;20.20;99.90
30150;DHT22;16962;48.646;9.026;2023-08-21T03:42:06;20.20;99.90
30150;DHT22;16962;48.646;9.026;2023-08-21T03:44:56;20.20;99.90
30150;DHT22;16962;48.646;9.026;2023-08-21T03:47:43;20.20;99.90
30150;DHT22;16962;48.646;9.026;2023-08-21T03:50:33;20.20;99.90
30150;DHT22;16962;48.646;9.026;2023-08-21T03:53:22;20.20;99.90
30150;DHT22;16962;48.646;9.026;2023-08-21T03:56:10;20.20;99.90
30150;DHT22;16962;48.646;9.026;2023-08-21T03:58:59;20.10;99.90
30150;DHT22;16962;48.646;9.026;2023-08-21T04:01:46;20.00;99.90
30150;DHT22;16962;48.646;9.026;2023-08-21T04:04:33;20.00;99.90
30150;DHT22;16962;48.646;9.026;2023-08-21T04:07:23;20.00;99.90
30150;DHT22;16962;48.646;9.026;2023-08-21T04:10:10;20.00;99.90
30150;DHT22;16962;48.646;9.026;2023-08-21T04:12:58;19.90;99.90
30150;DHT22;16962;48.646;9.026;2023-08-21T04:15:48;19.80;99.90
30150;DHT22;16962;48.646;9.026;2023-08-21T04:18:36;19.80;99.90
30150;DHT22;16962;48.646;9.026;2023-08-21T04:21:30;19.80;99.90
30150;DHT22;16962;48.646;9.026;2023-08-21T04:27:02;19.80;99.90
30150;DHT22;16962;48.646;9.026;2023-08-21T04:29:51;19.80;99.90
30150;DHT22;16962;48.646;9.026;2023-08-21T04:32:39;19.80;99.90
30150;DHT22;16962;48.646;9.026;2023-08-21T04:35:27;19.80;99.90
30150;DHT22;16962;48.646;9.026;2023-08-21T04:38:14;19.80;99.90
30150;DHT22;16962;48.646;9.026;2023-08-21T04:41:08;19.80;99.90
30150;DHT22;16962;48.646;9.026;2023-08-21T04:43:55;19.80;99.90
30150;DHT22;16962;48.646;9.026;2023-08-21T04:46:42;19.80;99.90
30150;DHT22;16962;48.646;9.026;2023-08-21T04:49:39;19.70;99.90
30150;DHT22;16962;48.646;9.026;2023-08-21T04:53:13;19.70;99.90
30150;DHT22;16962;48.646;9.026;2023-08-21T04:56:17;19.80;99.90
30150;DHT22;16962;48.646;9.026;2023-08-21T05:11:24;19.80;99.90
30150;DHT22;16962;48.646;9.026;2023-08-21T05:18:17;19.90;99.90
30150;DHT22;16962;48.646;9.026;2023-08-21T05:21:04;20.00;99.90
30150;DHT22;16962;48.646;9.026;2023-08-21T05:23:51;20.10;99.90
30150;DHT22;16962;48.646;9.026;2023-08-21T05:26:41;20.20;99.90
30150;DHT22;16962;48.646;9.026;2023-08-21T05:29:28;20.40;99.90
30150;DHT22;16962;48.646;9.026;2023-08-21T05:32:16;20.50;99.90
30150;DHT22;16962;48.646;9.026;2023-08-21T05:35:03;20.70;99.90
30150;DHT22;16962;48.646;9.026;2023-08-21T05:37:53;20.80;99.90
30150;DHT22;16962;48.646;9.026;2023-08-21T05:40:41;20.90;99.90
30150;DHT22;16962;48.646;9.026;2023-08-21T05:43:29;21.00;99.90
30150;DHT22;16962;48.646;9.026;2023-08-21T05:46:36;21.10;99.90
30150;DHT22;16962;48.646;9.026;2023-08-21T05:49:33;21.10;99.90
30150;DHT22;16962;48.646;9.026;2023-08-21T05:52:32;21.20;1.00
30150;DHT22;16962;48.646;9.026;2023-08-21T05:55:20;21.20;1.00
30150;DHT22;16962;48.646;9.026;2023-08-21T05:58:09;21.30;99.90
30150;DHT22;16962;48.646;9.026;2023-08-21T06:00:57;21.40;99.90
30150;DHT22;16962;48.646;9.026;2023-08-21T06:03:48;21.40;6.80
30150;DHT22;16962;48.646;9.026;2023-08-21T06:06:38;21.50;1.00
30150;DHT22;16962;48.646;9.026;2023-08-21T06:09:25;21.60;99.90
30150;DHT22;16962;48.646;9.026;2023-08-21T06:12:23;21.70;99.90
30150;DHT22;16962;48.646;9.026;2023-08-21T06:15:11;21.80;1.00
30150;DHT22;16962;48.646;9.026;2023-08-21T06:17:59;21.90;99.90
30150;DHT22;16962;48.646;9.026;2023-08-21T06:20:49;22.00;3.60
30150;DHT22;16962;48.646;9.026;2023-08-21T06:23:40;22.10;99.90
30150;DHT22;16962;48.646;9.026;2023-08-21T06:26:37;22.20;99.90
30150;DHT22;16962;48.646;9.026;2023-08-21T06:29:29;22.30;99.90
30150;DHT22;16962;48.646;9.026;2023-08-21T06:32:37;22.50;1.90
30150;DHT22;16962;48.646;9.026;2023-08-21T06:35:27;22.70;99.90
30150;DHT22;16962;48.646;9.026;2023-08-21T06:38:14;23.00;99.90
30150;DHT22;16962;48.646;9.026;2023-08-21T06:41:02;23.10;99.90
30150;DHT22;16962;48.646;9.026;2023-08-21T06:43:58;23.20;34.30
30150;DHT22;16962;48.646;9.026;2023-08-21T06:46:46;23.30;1.00
30150;DHT22;16962;48.646;9.026;2023-08-21T06:49:36;23.50;99.90
30150;DHT22;16962;48.646;9.026;2023-08-21T06:52:23;23.60;99.90
30150;DHT22;16962;48.646;9.026;2023-08-21T06:55:10;23.80;99.90
30150;DHT22;16962;48.646;9.026;2023-08-21T06:57:58;24.10;1.00
30150;DHT22;16962;48.646;9.026;2023-08-21T07:00:45;24.20;99.90
30150;DHT22;16962;48.646;9.026;2023-08-21T07:03:40;24.30;99.90
30150;DHT22;16962;48.646;9.026;2023-08-21T07:06:30;24.50;99.90
30150;DHT22;16962;48.646;9.026;2023-08-21T07:09:24;24.70;99.90
30150;DHT22;16962;48.646;9.026;2023-08-21T07:12:13;24.90;99.90
30150;DHT22;16962;48.646;9.026;2023-08-21T07:15:01;25.20;99.90
30150;DHT22;16962;48.646;9.026;2023-08-21T07:17:50;25.30;1.00
30150;DHT22;16962;48.646;9.026;2023-08-21T07:20:39;25.40;1.00
30150;DHT22;16962;48.646;9.026;2023-08-21T07:23:26;25.60;1.00
30150;DHT22;16962;48.646;9.026;2023-08-21T07:26:13;25.90;99.90
30150;DHT22;16962;48.646;9.026;2023-08-21T07:29:01;26.20;99.90
30150;DHT22;16962;48.646;9.026;2023-08-21T07:31:48;26.40;99.90
30150;DHT22;16962;48.646;9.026;2023-08-21T07:34:36;26.70;99.90
30150;DHT22;16962;48.646;9.026;2023-08-21T07:37:23;26.80;99.90
30150;DHT22;16962;48.646;9.026;2023-08-21T07:40:13;26.80;99.90
30150;DHT22;16962;48.646;9.026;2023-08-21T07:43:01;27.10;99.90
30150;DHT22;16962;48.646;9.026;2023-08-21T07:45:48;27.50;94.50
30150;DHT22;16962;48.646;9.026;2023-08-21T07:48:36;27.80;34.50
30150;DHT22;16962;48.646;9.026;2023-08-21T08:00:13;29.10;1.00
30150;DHT22;16962;48.646;9.026;2023-08-21T08:07:56;30.70;99.90
30150;DHT22;16962;48.646;9.026;2023-08-21T08:19:56;31.50;99.90
30150;DHT22;16962;48.646;9.026;2023-08-21T08:39:32;31.80;99.90
30150;DHT22;16962;48.646;9.026;2023-08-21T08:42:57;32.00;99.90
30150;DHT22;16962;48.646;9.026;2023-08-21T08:46:11;32.30;99.90
30150;DHT22;16962;48.646;9.026;2023-08-21T08:54:30;31.40;99.90
30150;DHT22;16962;48.646;9.026;2023-08-21T09:14:39;32.80;99.90
30150;DHT22;16962;48.646;9.026;2023-08-21T09:17:59;33.20;99.90
30150;DHT22;16962;48.646;9.026;2023-08-21T09:21:09;34.60;99.90
30150;DHT22;16962;48.646;9.026;2023-08-21T09:24:01;36.10;99.90
30150;DHT22;16962;48.646;9.026;2023-08-21T09:27:13;35.80;93.10
30150;DHT22;16962;48.646;9.026;2023-08-21T09:34:29;34.20;92.80
30150;DHT22;16962;48.646;9.026;2023-08-21T09:41:56;36.30;73.30
30150;DHT22;16962;48.646;9.026;2023-08-21T09:55:38;34.80;33.80
30150;DHT22;16962;48.646;9.026;2023-08-21T09:58:47;34.80;28.10
30150;DHT22;16962;48.646;9.026;2023-08-21T10:02:29;34.50;23.00
30150;DHT22;16962;48.646;9.026;2023-08-21T10:05:40;33.90;37.50
30150;DHT22;16962;48.646;9.026;2023-08-21T10:25:19;36.10;56.70
30150;DHT22;16962;48.646;9.026;2023-08-21T10:29:01;36.20;99.90
30150;DHT22;16962;48.646;9.026;2023-08-21T10:32:21;37.50;12.10
30150;DHT22;16962;48.646;9.026;2023-08-21T10:35:30;36.70;1.00
30150;DHT22;16962;48.646;9.026;2023-08-21T10:42:16;36.40;1.00
30150;DHT22;16962;48.646;9.026;2023-08-21T10:45:14;37.40;1.00
30150;DHT22;16962;48.646;9.026;2023-08-21T10:48:18;36.60;1.00
30150;DHT22;16962;48.646;9.026;2023-08-21T10:55:42;38.60;1.00
30150;DHT22;16962;48.646;9.026;2023-08-21T10:59:48;40.50;1.00
30150;DHT22;16962;48.646;9.026;2023-08-21T11:03:11;40.00;1.00
30150;DHT22;16962;48.646;9.026;2023-08-21T11:11:13;39.70;1.00
30150;DHT22;16962;48.646;9.026;2023-08-21T11:39:07;33.30;1.00
30150;DHT22;16962;48.646;9.026;2023-08-21T11:42:18;34.00;1.00
30150;DHT22;16962;48.646;9.026;2023-08-21T11:45:21;35.90;1.00
30150;DHT22;16962;48.646;9.026;2023-08-21T11:48:09;37.60;1.00
30150;DHT22;16962;48.646;9.026;2023-08-21T12:03:50;40.00;1.00
30150;DHT22;16962;48.646;9.026;2023-08-21T12:06:51;40.60;1.00
30150;DHT22;16962;48.646;9.026;2023-08-21T12:09:51;40.20;1.00
30150;DHT22;16962;48.646;9.026;2023-08-21T12:12:39;40.70;1.00
30150;DHT22;16962;48.646;9.026;2023-08-21T12:15:39;40.30;1.00
30150;DHT22;16962;48.646;9.026;2023-08-21T12:18:49;41.00;1.00
30150;DHT22;16962;48.646;9.026;2023-08-21T12:22:11;40.70;1.00
30150;DHT22;16962;48.646;9.026;2023-08-21T12:25:22;39.60;1.00
30150;DHT22;16962;48.646;9.026;2023-08-21T12:28:24;41.10;1.00
30150;DHT22;16962;48.646;9.026;2023-08-21T12:35:40;42.40;1.00
30150;DHT22;16962;48.646;9.026;2023-08-21T14:55:04;38.80;1.00
30150;DHT22;16962;48.646;9.026;2023-08-21T14:57:54;39.50;1.00
30150;DHT22;16962;48.646;9.026;2023-08-21T15:00:41;40.00;1.00
30150;DHT22;16962;48.646;9.026;2023-08-21T15:03:30;39.40;1.00
30150;DHT22;16962;48.646;9.026;2023-08-21T15:06:18;38.60;1.00
30150;DHT22;16962;48.646;9.026;2023-08-21T15:09:07;38.50;7.70
30150;DHT22;16962;48.646;9.026;2023-08-21T15:11:56;38.00;1.00
30150;DHT22;16962;48.646;9.026;2023-08-21T15:14:43;37.20;1.00
30150;DHT22;16962;48.646;9.026;2023-08-21T15:17:33;37.40;1.00
30150;DHT22;16962;48.646;9.026;2023-08-21T15:20:22;37.90;1.00
30150;DHT22;16962;48.646;9.026;2023-08-21T15:23:10;38.30;1.00
30150;DHT22;16962;48.646;9.026;2023-08-21T15:25:59;38.90;1.00
30150;DHT22;16962;48.646;9.026;2023-08-21T15:28:52;38.10;1.00
30150;DHT22;16962;48.646;9.026;2023-08-21T15:31:42;37.60;1.00
30150;DHT22;16962;48.646;9.026;2023-08-21T15:34:32;38.10;1.00
30150;DHT22;16962;48.646;9.026;2023-08-21T15:37:19;39.10;1.00
30150;DHT22;16962;48.646;9.026;2023-08-21T15:40:09;39.00;1.00
30150;DHT22;16962;48.646;9.026;2023-08-21T15:42:58;38.20;1.00
30150;DHT22;16962;48.646;9.026;2023-08-21T15:45:47;38.40;1.00
30150;DHT22;16962;48.646;9.026;2023-08-21T15:48:34;38.80;1.00
30150;DHT22;16962;48.646;9.026;2023-08-21T15:51:26;38.90;1.00
30150;DHT22;16962;48.646;9.026;2023-08-21T15:54:18;39.00;1.00
30150;DHT22;16962;48.646;9.026;2023-08-21T15:57:07;37.60;1.00
30150;DHT22;16962;48.646;9.026;2023-08-21T16:00:07;37.20;1.00
30150;DHT22;16962;48.646;9.026;2023-08-21T16:02:58;37.10;1.00
30150;DHT22;16962;48.646;9.026;2023-08-21T16:05:48;37.10;1.00
30150;DHT22;16962;48.646;9.026;2023-08-21T16:08:35;37.30;1.00
30150;DHT22;16962;48.646;9.026;2023-08-21T16:11:22;36.80;1.00
30150;DHT22;16962;48.646;9.026;2023-08-21T16:14:15;36.30;1.00
30150;DHT22;16962;48.646;9.026;2023-08-21T16:17:05;36.00;1.00
30150;DHT22;16962;48.646;9.026;2023-08-21T16:19:58;35.60;1.00
30150;DHT22;16962;48.646;9.026;2023-08-21T16:22:48;35.50;1.00
30150;DHT22;16962;48.646;9.026;2023-08-21T16:25:35;35.30;1.00
30150;DHT22;16962;48.646;9.026;2023-08-21T16:28:23;35.20;40.10
30150;DHT22;16962;48.646;9.026;2023-08-21T16:31:14;35.00;42.80
30150;DHT22;16962;48.646;9.026;2023-08-21T16:34:02;34.40;3.20
30150;DHT22;16962;48.646;9.026;2023-08-21T16:37:04;34.00;1.00
30150;DHT22;16962;48.646;9.026;2023-08-21T16:39:54;33.30;1.00
30150;DHT22;16962;48.646;9.026;2023-08-21T16:43:02;33.00;6.10
30150;DHT22;16962;48.646;9.026;2023-08-21T16:45:49;32.70;26.90
30150;DHT22;16962;48.646;9.026;2023-08-21T16:48:46;32.20;1.00
30150;DHT22;16962;48.646;9.026;2023-08-21T16:51:51;31.50;1.00
30150;DHT22;16962;48.646;9.026;2023-08-21T16:55:01;31.00;3.30
30150;DHT22;16962;48.646;9.026;2023-08-21T16:58:14;30.70;52.50
30150;DHT22;16962;48.646;9.026;2023-08-21T17:01:05;30.50;30.80
30150;DHT22;16962;48.646;9.026;2023-08-21T17:04:00;30.10;73.60
30150;DHT22;16962;48.646;9.026;2023-08-21T17:07:02;30.00;47.70
30150;DHT22;16962;48.646;9.026;2023-08-21T17:10:04;29.80;24.10
30150;DHT22;16962;48.646;9.026;2023-08-21T17:12:55;29.70;84.10
30150;DHT22;16962;48.646;9.026;2023-08-21T17:15:49;29.60;30.20
30150;DHT22;16962;48.646;9.026;2023-08-21T17:18:45;29.40;26.80
30150;DHT22;16962;48.646;9.026;2023-08-21T17:25:24;29.20;95.00
30150;DHT22;16962;48.646;9.026;2023-08-21T17:28:11;29.00;99.90
30150;DHT22;16962;48.646;9.026;2023-08-21T17:30:59;29.00;94.00
30150;DHT22;16962;48.646;9.026;2023-08-21T17:33:46;28.90;83.70
30150;DHT22;16962;48.646;9.026;2023-08-21T17:36:34;28.70;99.90
30150;DHT22;16962;48.646;9.026;2023-08-21T17:39:21;28.70;99.90
30150;DHT22;16962;48.646;9.026;2023-08-21T17:42:08;28.60;99.90
30150;DHT22;16962;48.646;9.026;2023-08-21T17:44:57;28.50;99.90
30150;DHT22;16962;48.646;9.026;2023-08-21T17:47:44;28.40;1.00
30150;DHT22;16962;48.646;9.026;2023-08-21T17:50:38;28.30;1.00
30150;DHT22;16962;48.646;9.026;2023-08-21T17:53:26;28.20;1.00
30150;DHT22;16962;48.646;9.026;2023-08-21T17:56:13;28.20;1.00
30150;DHT22;16962;48.646;9.026;2023-08-21T17:59:00;28.00;1.00
30150;DHT22;16962;48.646;9.026;2023-08-21T18:01:47;27.90;1.00
30150;DHT22;16962;48.646;9.026;2023-08-21T18:04:37;27.70;1.00
30150;DHT22;16962;48.646;9.026;2023-08-21T18:07:24;27.60;1.00
30150;DHT22;16962;48.646;9.026;2023-08-21T18:10:12;27.50;1.00
30150;DHT22;16962;48.646;9.026;2023-08-21T18:12:59;27.40;1.00
30150;DHT22;16962;48.646;9.026;2023-08-21T18:15:52;27.30;1.00
30150;DHT22;16962;48.646;9.026;2023-08-21T18:18:39;27.20;13.80
30150;DHT22;16962;48.646;9.026;2023-08-21T18:21:32;27.10;9.70
30150;DHT22;16962;48.646;9.026;2023-08-21T18:24:19;27.00;5.30
30150;DHT22;16962;48.646;9.026;2023-08-21T18:27:07;26.90;24.50
30150;DHT22;16962;48.646;9.026;2023-08-21T18:29:54;26.70;37.80
30150;DHT22;16962;48.646;9.026;2023-08-21T18:32:41;26.60;46.50
30150;DHT22;16962;48.646;9.026;2023-08-21T18:35:29;26.50;50.70
30150;DHT22;16962;48.646;9.026;2023-08-21T18:38:17;26.40;61.80
30150;DHT22;16962;48.646;9.026;2023-08-21T18:41:06;26.20;87.70
30150;DHT22;16962;48.646;9.026;2023-08-21T18:43:54;26.10;92.70
30150;DHT22;16962;48.646;9.026;2023-08-21T18:46:42;26.10;91.80
30150;DHT22;16962;48.646;9.026;2023-08-21T18:49:29;26.00;99.90
30150;DHT22;16962;48.646;9.026;2023-08-21T18:52:17;25.80;99.90
30150;DHT22;16962;48.646;9.026;2023-08-21T18:55:08;25.80;99.90
30150;DHT22;16962;48.646;9.026;2023-08-21T18:57:57;25.70;99.90
30150;DHT22;16962;48.646;9.026;2023-08-21T19:00:45;25.70;99.90
30150;DHT22;16962;48.646;9.026;2023-08-21T19:03:32;25.60;99.90
30150;DHT22;16962;48.646;9.026;2023-08-21T19:06:22;25.50;99.90
30150;DHT22;16962;48.646;9.026;2023-08-21T19:09:09;25.40;99.90
30150;DHT22;16962;48.646;9.026;2023-08-21T19:11:56;25.30;99.90
30150;DHT22;16962;48.646;9.026;2023-08-21T19:14:44;25.30;99.90
30150;DHT22;16962;48.646;9.026;2023-08-21T19:17:31;25.30;99.90
30150;DHT22;16962;48.646;9.026;2023-08-21T19:20:20;25.30;99.90
30150;DHT22;16962;48.646;9.026;2023-08-21T19:23:08;25.30;99.90
30150;DHT22;16962;48.646;9.026;2023-08-21T19:26:00;25.30;99.90
30150;DHT22;16962;48.646;9.026;2023-08-21T19:28:49;25.30;99.90
30150;DHT22;16962;48.646;9.026;2023-08-21T19:31:36;25.30;99.90
30150;DHT22;16962;48.646;9.026;2023-08-21T19:34:28;25.20;99.90
30150;DHT22;16962;48.646;9.026;2023-08-21T19:37:18;25.20;99.90
30150;DHT22;16962;48.646;9.026;2023-08-21T19:40:08;25.10;99.90
30150;DHT22;16962;48.646;9.026;2023-08-21T19:42:56;25.10;99.90
30150;DHT22;16962;48.646;9.026;2023-08-21T19:45:53;25.10;99.90
30150;DHT22;16962;48.646;9.026;2023-08-21T19:48:41;25.00;99.90
30150;DHT22;16962;48.646;9.026;2023-08-21T19:51:28;25.00;99.90
30150;DHT22;16962;48.646;9.026;2023-08-21T19:54:16;25.00;99.90
30150;DHT22;16962;48.646;9.026;2023-08-21T19:57:03;25.00;99.90
30150;DHT22;16962;48.646;9.026;2023-08-21T19:59:51;24.90;99.90
30150;DHT22;16962;48.646;9.026;2023-08-21T20:02:39;24.80;99.90
30150;DHT22;16962;48.646;9.026;2023-08-21T20:05:26;24.70;99.90
30150;DHT22;16962;48.646;9.026;2023-08-21T20:08:14;24.60;99.90
30150;DHT22;16962;48.646;9.026;2023-08-21T20:11:03;24.70;99.90
30150;DHT22;16962;48.646;9.026;2023-08-21T20:13:53;24.60;99.90
30150;DHT22;16962;48.646;9.026;2023-08-21T20:16:40;24.70;99.90
30150;DHT22;16962;48.646;9.026;2023-08-21T20:19:27;24.60;99.90
30150;DHT22;16962;48.646;9.026;2023-08-21T20:22:16;24.60;99.90
30150;DHT22;16962;48.646;9.026;2023-08-21T20:25:08;24.50;99.90
30150;DHT22;16962;48.646;9.026;2023-08-21T20:27:58;24.50;99.90
30150;DHT22;16962;48.646;9.026;2023-08-21T20:30:50;24.50;99.90
30150;DHT22;16962;48.646;9.026;2023-08-21T20:33:38;24.50;99.90
30150;DHT22;16962;48.646;9.026;2023-08-21T20:36:25;24.50;99.90
30150;DHT22;16962;48.646;9.026;2023-08-21T20:39:12;24.50;99.90
30150;DHT22;16962;48.646;9.026;2023-08-21T20:41:59;24.40;99.90
30150;DHT22;16962;48.646;9.026;2023-08-21T20:44:49;24.40;99.90
30150;DHT22;16962;48.646;9.026;2023-08-21T20:47:37;24.30;1.00
30150;DHT22;16962;48.646;9.026;2023-08-21T20:50:26;24.30;1.00
30150;DHT22;16962;48.646;9.026;2023-08-21T20:53:14;24.20;1.00
30150;DHT22;16962;48.646;9.026;2023-08-21T20:56:01;24.10;1.00
30150;DHT22;16962;48.646;9.026;2023-08-21T20:58:49;24.00;1.00
30150;DHT22;16962;48.646;9.026;2023-08-21T21:01:39;23.90;1.00
30150;DHT22;16962;48.646;9.026;2023-08-21T21:04:26;23.80;12.10
30150;DHT22;16962;48.646;9.026;2023-08-21T21:07:16;23.60;90.70
30150;DHT22;16962;48.646;9.026;2023-08-21T21:10:04;23.60;99.90
30150;DHT22;16962;48.646;9.026;2023-08-21T21:12:52;23.50;99.90
30150;DHT22;16962;48.646;9.026;2023-08-21T21:15:42;23.50;99.90
30150;DHT22;16962;48.646;9.026;2023-08-21T21:18:29;23.50;99.90
30150;DHT22;16962;48.646;9.026;2023-08-21T21:21:17;23.40;99.90
30150;DHT22;16962;48.646;9.026;2023-08-21T21:24:06;23.30;99.90
30150;DHT22;16962;48.646;9.026;2023-08-21T21:26:54;23.20;99.90
30150;DHT22;16962;48.646;9.026;2023-08-21T21:29:47;23.10;1.00
30150;DHT22;16962;48.646;9.026;2023-08-21T21:32:37;23.00;1.00
30150;DHT22;16962;48.646;9.026;2023-08-21T21:35:24;22.90;1.00
30150;DHT22;16962;48.646;9.026;2023-08-21T21:38:12;22.90;1.00
30150;DHT22;16962;48.646;9.026;2023-08-21T21:41:00;22.80;1.00
30150;DHT22;16962;48.646;9.026;2023-08-21T21:43:47;22.80;1.00
30150;DHT22;16962;48.646;9.026;2023-08-21T21:46:34;22.80;1.00
30150;DHT22;16962;48.646;9.026;2023-08-21T21:49:22;22.80;1.00
30150;DHT22;16962;48.646;9.026;2023-08-21T21:52:09;22.80;1.00
30150;DHT22;16962;48.646;9.026;2023-08-21T21:55:04;22.80;1.00
30150;DHT22;16962;48.646;9.026;2023-08-21T21:57:52;22.80;1.00
30150;DHT22;16962;48.646;9.026;2023-08-21T22:00:40;22.80;1.00
30150;DHT22;16962;48.646;9.026;2023-08-21T22:03:30;22.80;1.00
30150;DHT22;16962;48.646;9.026;2023-08-21T22:06:17;22.80;1.00
30150;DHT22;16962;48.646;9.026;2023-08-21T22:09:05;22.90;1.00
30150;DHT22;16962;48.646;9.026;2023-08-21T22:11:52;22.80;16.60
30150;DHT22;16962;48.646;9.026;2023-08-21T22:14:40;22.80;38.50
30150;DHT22;16962;48.646;9.026;2023-08-21T22:17:27;22.70;99.90
30150;DHT22;16962;48.646;9.026;2023-08-21T22:20:15;22.70;99.90
30150;DHT22;16962;48.646;9.026;2023-08-21T22:23:08;22.60;99.90
30150;DHT22;16962;48.646;9.026;2023-08-21T22:25:55;22.70;99.90
30150;DHT22;16962;48.646;9.026;2023-08-21T22:28:45;22.70;99.90
30150;DHT22;16962;48.646;9.026;2023-08-21T22:31:35;22.60;99.90
30150;DHT22;16962;48.646;9.026;2023-08-21T22:34:28;22.60;99.90
30150;DHT22;16962;48.646;9.026;2023-08-21T22:37:18;22.50;99.90
30150;DHT22;16962;48.646;9.026;2023-08-21T22:40:10;22.50;1.00
30150;DHT22;16962;48.646;9.026;2023-08-21T22:42:57;22.50;1.00
30150;DHT22;16962;48.646;9.026;2023-08-21T22:45:45;22.50;1.00
30150;DHT22;16962;48.646;9.026;2023-08-21T22:48:33;22.40;1.00
30150;DHT22;16962;48.646;9.026;2023-08-21T22:51:21;22.50;1.00
30150;DHT22;16962;48.646;9.026;2023-08-21T22:54:11;22.50;73.40
30150;DHT22;16962;48.646;9.026;2023-08-21T22:57:01;22.40;99.90
30150;DHT22;16962;48.646;9.026;2023-08-21T22:59:48;22.40;99.90
30150;DHT22;16962;48.646;9.026;2023-08-21T23:02:49;22.40;99.90
30150;DHT22;16962;48.646;9.026;2023-08-21T23:05:37;22.30;99.90
30150;DHT22;16962;48.646;9.026;2023-08-21T23:08:27;22.30;99.90
30150;DHT22;16962;48.646;9.026;2023-08-21T23:11:14;22.20;99.90
30150;DHT22;16962;48.646;9.026;2023-08-21T23:14:03;22.20;1.00
30150;DHT22;16962;48.646;9.026;2023-08-21T23:16:50;22.10;76.70
30150;DHT22;16962;48.646;9.026;2023-08-21T23:19:40;22.00;1.00
30150;DHT22;16962;48.646;9.026;2023-08-21T23:22:32;22.00;99.90
30150;DHT22;16962;48.646;9.026;2023-08-21T23:25:19;22.00;1.00